This is the latest recevied weather packets stored in our database for station/object N7NIP. If no packets are shown the sender has not sent any weather packets the latest 1 day(s).
| Time | Temp. | Humidity | Pressure | Rain* | Wind** | Luminosity | Snow |
|---|---|---|---|---|---|---|---|
| 1777982979 | 10.56° C | 99% | 1028.1 hPa | 0 mm | 1.34 m/s, 91° | 0 W/m² | - |
| 1777982676 | 10° C | 99% | 1028.3 hPa | 0 mm | 0.89 m/s, 152° | 0 W/m² | - |
| 1777982375 | 9.44° C | 99% | 1028.1 hPa | 0 mm | 0.89 m/s, 88° | 0 W/m² | - |
| 1777982071 | 9.44° C | 98% | 1027.8 hPa | 0 mm | 0.45 m/s, 21° | 0 W/m² | - |
| 1777981769 | 9.44° C | 98% | 1028 hPa | 0 mm | 0.89 m/s, 58° | 0 W/m² | - |
| 1777981465 | 9.44° C | 98% | 1028.1 hPa | 0 mm | 0.89 m/s, 75° | 0 W/m² | - |
| 1777981162 | 8.89° C | 98% | 1028 hPa | 0 mm | 0.89 m/s, 94° | 0 W/m² | - |
| 1777980859 | 9.44° C | 98% | 1027.9 hPa | 0 mm | 0.89 m/s, 69° | 0 W/m² | - |
| 1777980554 | 9.44° C | 98% | 1028.1 hPa | 0 mm | 0.45 m/s, 106° | 0 W/m² | - |
| 1777980253 | 8.89° C | 98% | 1028.1 hPa | 0 mm | 0 m/s | 0 W/m² | - |
| 1777979948 | 8.89° C | 98% | 1027.8 hPa | 0 mm | 0.89 m/s, 58° | 0 W/m² | - |
| 1777979643 | 9.44° C | 98% | 1027.9 hPa | 0 mm | 0.89 m/s, 62° | 0 W/m² | - |
| 1777979339 | 9.44° C | 98% | 1027.9 hPa | 0 mm | 0.45 m/s, 67° | 0 W/m² | - |
| 1777979037 | 9.44° C | 98% | 1027.9 hPa | 0 mm | 0.89 m/s, 76° | 0 W/m² | - |
| 1777978733 | 9.44° C | 98% | 1027.8 hPa | 0 mm | 0.89 m/s, 78° | 0 W/m² | - |
| 1777978429 | 9.44° C | 98% | 1027.7 hPa | 0 mm | 0.45 m/s, 80° | 0 W/m² | - |
| 1777978126 | 9.44° C | 98% | 1027.7 hPa | 0 mm | 0.45 m/s, 57° | 0 W/m² | - |
| 1777977824 | 9.44° C | 97% | 1027.6 hPa | 0 mm | 0.45 m/s, 68° | 0 W/m² | - |
| 1777977519 | 9.44° C | 97% | 1027.6 hPa | 0 mm | 0.89 m/s, 84° | 0 W/m² | - |
| 1777977217 | 9.44° C | 97% | 1027.4 hPa | 0 mm | 0 m/s | 0 W/m² | - |
| 1777976914 | 9.44° C | 97% | 1027.5 hPa | 0 mm | 0.89 m/s, 65° | 0 W/m² | - |
| 1777976612 | 9.44° C | 96% | 1027.6 hPa | 0 mm | 0.89 m/s, 53° | 0 W/m² | - |
| 1777976307 | 9.44° C | 96% | 1027.3 hPa | 0 mm | 0.89 m/s, 73° | 0 W/m² | - |
| 1777976002 | 10° C | 96% | 1027.4 hPa | 0 mm | 0 m/s | 0 W/m² | - |
| 1777975698 | 10° C | 96% | 1027.4 hPa | 0 mm | 0.45 m/s, 89° | 0 W/m² | - |
* Rain latest hour (hover to see other rain measurements)
** Current wind speed in m/s (hover to see current wind gust speed)